createdAt,value
2018-04-18T00:00:59.545Z,21.48
2018-04-18T00:03:25.782Z,21.48
2018-04-18T00:05:52.105Z,21.48
2018-04-18T00:08:18.282Z,21.48
2018-04-18T00:10:44.738Z,21.47
2018-04-18T00:13:11.273Z,21.46
2018-04-18T00:15:37.707Z,21.45
2018-04-18T00:18:04.348Z,21.45
2018-04-18T00:20:30.530Z,21.43
2018-04-18T00:22:56.721Z,21.43
2018-04-18T00:25:22.916Z,21.41
2018-04-18T00:27:49.357Z,21.41
2018-04-18T00:30:15.696Z,21.39
2018-04-18T00:32:41.994Z,21.38
2018-04-18T00:35:08.219Z,21.38
2018-04-18T00:37:34.455Z,21.39
2018-04-18T00:40:00.620Z,21.41
2018-04-18T00:42:27.076Z,21.41
2018-04-18T00:44:53.281Z,21.42
2018-04-18T00:47:19.791Z,21.44
2018-04-18T00:49:45.948Z,21.44
2018-04-18T00:52:12.182Z,21.44
2018-04-18T00:54:38.359Z,21.44
2018-04-18T00:57:04.601Z,21.44
2018-04-18T00:59:30.815Z,21.45
2018-04-18T01:01:56.992Z,21.44
2018-04-18T01:04:23.206Z,21.45
2018-04-18T01:06:49.398Z,21.44
2018-04-18T01:09:15.560Z,21.44
2018-04-18T01:11:41.807Z,21.43
2018-04-18T01:14:08.011Z,21.43
2018-04-18T01:16:34.238Z,21.43
2018-04-18T01:19:00.445Z,21.43
2018-04-18T01:21:26.890Z,21.42
2018-04-18T01:23:53.151Z,21.39
2018-04-18T01:26:19.753Z,21.37
2018-04-18T01:28:45.951Z,21.36
2018-04-18T01:31:12.419Z,21.36
2018-04-18T01:33:38.726Z,21.35
2018-04-18T01:36:04.963Z,21.29
2018-04-18T01:38:31.514Z,21.32
2018-04-18T01:40:57.706Z,21.33
2018-04-18T01:43:23.894Z,21.32
2018-04-18T01:45:50.134Z,21.31
2018-04-18T01:48:16.330Z,21.28
2018-04-18T01:50:42.577Z,21.30
2018-04-18T01:53:08.881Z,21.30
2018-04-18T01:55:35.426Z,21.29
2018-04-18T01:58:01.613Z,21.29
2018-04-18T02:00:28.176Z,21.25
2018-04-18T02:02:54.398Z,21.21
2018-04-18T02:05:20.615Z,21.19
2018-04-18T02:07:46.843Z,21.16
2018-04-18T02:10:13.126Z,21.17
2018-04-18T02:12:39.305Z,21.14
2018-04-18T02:15:05.546Z,21.13
2018-04-18T02:17:31.745Z,21.14
2018-04-18T02:19:58.325Z,21.16
2018-04-18T02:22:24.558Z,21.14
2018-04-18T02:24:51.073Z,21.13
2018-04-18T02:27:17.610Z,21.11
2018-04-18T02:29:43.843Z,21.08
2018-04-18T02:32:11.450Z,21.09
2018-04-18T02:34:37.673Z,21.10
2018-04-18T02:37:04.263Z,21.10
2018-04-18T02:39:30.841Z,21.13
2018-04-18T02:41:57.058Z,21.16
2018-04-18T02:44:23.238Z,21.15
2018-04-18T02:46:49.526Z,21.16
2018-04-18T02:49:15.813Z,21.18
2018-04-18T02:51:42.346Z,21.19
2018-04-18T02:54:08.623Z,21.18
2018-04-18T02:56:34.838Z,21.18
2018-04-18T02:59:01.012Z,21.18
2018-04-18T03:01:27.246Z,21.18
2018-04-18T03:03:53.491Z,21.15
2018-04-18T03:06:19.743Z,21.14
2018-04-18T03:08:45.940Z,21.15
2018-04-18T03:11:12.133Z,21.17
2018-04-18T03:13:38.437Z,21.17
2018-04-18T03:16:04.630Z,21.16
2018-04-18T03:18:30.806Z,21.16
2018-04-18T03:20:57.124Z,21.16
2018-04-18T03:23:23.620Z,21.14
2018-04-18T03:25:49.858Z,21.12
2018-04-18T03:28:16.056Z,21.12
2018-04-18T03:30:42.312Z,21.11
2018-04-18T03:33:08.563Z,21.11
2018-04-18T03:35:34.749Z,21.10
2018-04-18T03:38:00.979Z,21.09
2018-04-18T03:40:27.428Z,21.09
2018-04-18T03:42:53.672Z,21.09
2018-04-18T03:45:19.914Z,21.08
2018-04-18T03:47:46.159Z,21.06
2018-04-18T03:50:12.594Z,21.06
2018-04-18T03:52:38.840Z,21.06
2018-04-18T03:55:05.021Z,21.04
2018-04-18T03:57:31.211Z,21.05
2018-04-18T03:59:57.406Z,21.03
2018-04-18T04:02:23.621Z,21.05
2018-04-18T04:04:49.934Z,21.07
2018-04-18T04:07:16.164Z,21.07
2018-04-18T04:09:50.251Z,21.06
2018-04-18T04:12:16.433Z,21.05
2018-04-18T04:14:42.908Z,21.06
2018-04-18T04:17:21.394Z,21.06
2018-04-18T04:20:00.076Z,21.06
2018-04-18T04:22:38.665Z,21.06
2018-04-18T04:25:04.839Z,21.03
2018-04-18T04:27:31.061Z,21.02
2018-04-18T04:29:57.230Z,21.04
2018-04-18T04:32:23.543Z,21.07
2018-04-18T04:34:49.804Z,21.08
2018-04-18T04:37:16.021Z,21.11
2018-04-18T04:39:42.278Z,21.11
2018-04-18T04:42:08.498Z,21.05
2018-04-18T04:44:34.718Z,20.98
2018-04-18T04:47:00.990Z,20.92
2018-04-18T04:49:27.604Z,20.89
2018-04-18T04:51:54.240Z,20.88
2018-04-18T04:54:20.419Z,20.86
2018-04-18T04:56:46.679Z,20.86
2018-04-18T04:59:12.851Z,20.86
2018-04-18T05:01:39.033Z,20.87
2018-04-18T05:04:05.272Z,20.86
2018-04-18T05:06:31.558Z,20.86
2018-04-18T05:08:57.775Z,20.85
2018-04-18T05:11:24.022Z,20.84
2018-04-18T05:13:50.254Z,20.87
2018-04-18T05:16:16.455Z,20.86
2018-04-18T05:18:42.643Z,20.85
2018-04-18T05:21:09.227Z,20.90
2018-04-18T05:23:35.398Z,20.97
2018-04-18T05:26:01.651Z,21.00
2018-04-18T05:28:28.318Z,21.03
2018-04-18T05:30:54.650Z,21.04
2018-04-18T05:33:20.853Z,21.04
2018-04-18T05:35:47.536Z,21.05
2018-04-18T05:38:13.787Z,21.05
2018-04-18T05:40:40.018Z,21.06
2018-04-18T05:43:06.338Z,21.07
2018-04-18T05:45:32.525Z,21.11
2018-04-18T05:47:58.877Z,21.11
2018-04-18T05:50:25.093Z,21.10
2018-04-18T05:52:51.347Z,21.16
2018-04-18T05:55:18.079Z,21.20
2018-04-18T05:57:44.340Z,21.24
2018-04-18T06:00:10.538Z,21.27
2018-04-18T06:02:36.817Z,21.25
2018-04-18T06:05:03.046Z,21.27
2018-04-18T06:07:29.259Z,21.31
2018-04-18T06:09:56.140Z,21.32
2018-04-18T06:12:22.331Z,21.38
2018-04-18T06:14:48.509Z,21.41
2018-04-18T06:17:14.959Z,21.36
2018-04-18T06:19:41.190Z,21.36
2018-04-18T06:22:07.404Z,21.37
2018-04-18T06:24:33.865Z,21.42
2018-04-18T06:27:00.077Z,21.39
2018-04-18T06:29:26.293Z,21.41
2018-04-18T06:31:52.477Z,21.41
2018-04-18T06:34:18.736Z,21.41
2018-04-18T06:36:44.948Z,21.46
2018-04-18T06:39:11.129Z,21.45
2018-04-18T06:41:37.337Z,21.44
2018-04-18T06:44:10.521Z,21.43
2018-04-18T06:46:36.766Z,21.43
2018-04-18T06:49:02.926Z,21.42
2018-04-18T06:51:29.176Z,21.42
2018-04-18T06:53:55.385Z,21.41
2018-04-18T06:56:22.047Z,21.44
2018-04-18T06:58:48.308Z,21.44
2018-04-18T07:01:14.559Z,21.47
2018-04-18T07:03:40.773Z,21.48
2018-04-18T07:06:06.958Z,21.48
2018-04-18T07:08:33.242Z,21.52
2018-04-18T07:10:59.413Z,21.53
2018-04-18T07:13:25.896Z,21.50
2018-04-18T07:15:52.153Z,21.50
2018-04-18T07:18:18.422Z,21.52
2018-04-18T07:20:45.053Z,21.51
2018-04-18T07:23:11.283Z,21.55
2018-04-18T07:25:37.453Z,21.56
2018-04-18T07:28:03.653Z,21.54
2018-04-18T07:30:29.890Z,21.54
2018-04-18T07:32:56.156Z,21.52
2018-04-18T07:35:22.368Z,21.51
2018-04-18T07:37:48.897Z,21.52
2018-04-18T07:40:15.089Z,21.55
2018-04-18T07:42:41.322Z,21.59
2018-04-18T07:45:07.784Z,21.60
2018-04-18T07:47:33.949Z,21.60
2018-04-18T07:50:00.170Z,21.60
2018-04-18T07:52:26.429Z,21.62
2018-04-18T07:54:52.635Z,21.63
2018-04-18T07:57:19.250Z,21.63
2018-04-18T07:59:45.545Z,21.62
2018-04-18T08:02:11.717Z,21.63
2018-04-18T08:04:37.999Z,21.65
2018-04-18T08:07:04.257Z,21.65
2018-04-18T08:09:30.440Z,21.66
2018-04-18T08:11:56.765Z,21.67
2018-04-18T08:14:23.052Z,21.69
2018-04-18T08:16:49.525Z,21.73
2018-04-18T08:19:15.746Z,21.75
2018-04-18T08:21:42.001Z,21.76
2018-04-18T08:24:08.290Z,21.76
2018-04-18T08:26:34.843Z,21.76
2018-04-18T08:29:01.082Z,21.77
2018-04-18T08:31:27.271Z,21.77
2018-04-18T08:33:53.496Z,21.78
2018-04-18T08:36:20.009Z,21.80
2018-04-18T08:38:46.255Z,21.82
2018-04-18T08:41:12.525Z,21.83
2018-04-18T08:43:38.722Z,21.84
2018-04-18T08:46:05.327Z,21.85
2018-04-18T08:48:31.475Z,21.86
2018-04-18T08:50:57.685Z,21.87
2018-04-18T08:53:23.927Z,21.86
2018-04-18T08:55:50.095Z,21.88
2018-04-18T08:58:16.450Z,21.88
2018-04-18T09:00:42.982Z,21.90
2018-04-18T09:03:09.206Z,21.91
2018-04-18T09:05:35.520Z,21.92
2018-04-18T09:08:01.996Z,21.91
2018-04-18T09:10:28.233Z,21.91
2018-04-18T09:12:54.462Z,21.93
2018-04-18T09:15:20.685Z,21.95
2018-04-18T09:17:46.962Z,21.96
2018-04-18T09:20:13.125Z,21.97
2018-04-18T09:22:39.409Z,21.97
2018-04-18T09:25:05.621Z,21.99
2018-04-18T09:27:31.817Z,21.99
2018-04-18T09:29:58.089Z,21.99
2018-04-18T09:32:24.300Z,22.02
2018-04-18T09:34:50.754Z,22.02
2018-04-18T09:37:16.957Z,22.02
2018-04-18T09:39:43.434Z,22.03
2018-04-18T09:42:09.680Z,22.04
2018-04-18T09:44:35.864Z,22.06
2018-04-18T09:47:02.141Z,22.07
2018-04-18T09:49:28.325Z,22.08
2018-04-18T09:51:54.516Z,22.10
2018-04-18T09:54:20.819Z,22.11
2018-04-18T09:56:54.037Z,22.12
2018-04-18T09:59:20.266Z,22.14
2018-04-18T10:01:46.502Z,22.14
2018-04-18T10:04:12.725Z,22.17
2018-04-18T10:06:38.990Z,22.19
2018-04-18T10:09:05.678Z,22.20
2018-04-18T10:11:32.242Z,22.23
2018-04-18T10:13:58.791Z,22.27
2018-04-18T10:16:25.114Z,22.30
2018-04-18T10:18:51.368Z,22.31
2018-04-18T10:21:17.548Z,22.33
2018-04-18T10:23:43.850Z,22.36
2018-04-18T10:26:10.022Z,22.38
2018-04-18T10:28:36.321Z,22.41
2018-04-18T10:31:02.556Z,22.44
2018-04-18T10:33:29.157Z,22.47
2018-04-18T10:35:55.370Z,22.50
2018-04-18T10:38:21.590Z,22.52
2018-04-18T10:40:47.914Z,22.52
2018-04-18T10:43:14.258Z,22.58
2018-04-18T10:45:40.768Z,22.61
2018-04-18T10:48:07.224Z,22.60
2018-04-18T10:50:33.551Z,22.66
2018-04-18T10:52:59.822Z,22.70
2018-04-18T10:55:25.974Z,22.72
2018-04-18T10:57:52.209Z,22.74
2018-04-18T11:00:18.411Z,22.80
2018-04-18T11:02:44.619Z,22.83
2018-04-18T11:05:10.808Z,22.87
2018-04-18T11:07:37.032Z,22.89
2018-04-18T11:10:03.322Z,22.93
2018-04-18T11:12:29.591Z,22.96
2018-04-18T11:14:55.846Z,23.00
2018-04-18T11:17:22.135Z,23.02
2018-04-18T11:19:48.415Z,23.04
2018-04-18T11:22:14.662Z,23.02
2018-04-18T11:24:40.881Z,23.07
2018-04-18T11:27:07.341Z,23.13
2018-04-18T11:29:33.502Z,23.16
2018-04-18T11:31:59.766Z,23.20
2018-04-18T11:34:25.936Z,23.24
2018-04-18T11:36:52.465Z,23.27
2018-04-18T11:39:18.731Z,23.35
2018-04-18T11:41:44.922Z,23.38
2018-04-18T11:44:11.139Z,23.40
2018-04-18T11:46:37.372Z,23.44
2018-04-18T11:49:03.595Z,23.48
2018-04-18T11:51:29.799Z,23.52
2018-04-18T11:53:56.366Z,23.55
2018-04-18T11:56:22.578Z,23.59
2018-04-18T11:58:49.059Z,23.63
2018-04-18T12:01:15.328Z,23.66
2018-04-18T12:03:41.536Z,23.71
2018-04-18T12:06:07.863Z,23.76
2018-04-18T12:08:34.114Z,23.76
2018-04-18T12:11:00.294Z,23.74
2018-04-18T12:13:26.536Z,23.70
2018-04-18T12:15:53.055Z,23.69
2018-04-18T12:18:19.267Z,23.71
2018-04-18T12:20:45.490Z,23.75
2018-04-18T12:23:11.911Z,23.76
2018-04-18T12:25:38.107Z,23.80
2018-04-18T12:28:04.505Z,23.83
2018-04-18T12:30:30.688Z,23.87
2018-04-18T12:32:56.931Z,23.88
2018-04-18T12:35:23.467Z,23.89
2018-04-18T12:37:49.650Z,23.92
2018-04-18T12:40:15.923Z,23.93
2018-04-18T12:42:42.153Z,23.91
2018-04-18T12:45:08.321Z,23.90
2018-04-18T12:47:34.478Z,23.90
2018-04-18T12:50:00.669Z,23.90
2018-04-18T12:52:26.922Z,23.94
2018-04-18T12:54:53.121Z,23.98
2018-04-18T12:57:19.441Z,24.01
2018-04-18T12:59:45.644Z,24.03
2018-04-18T13:02:11.947Z,24.07
2018-04-18T13:04:38.167Z,24.09
2018-04-18T13:07:04.356Z,24.10
2018-04-18T13:09:31.029Z,24.13
2018-04-18T13:11:57.196Z,24.15
2018-04-18T13:14:23.380Z,24.15
2018-04-18T13:16:49.802Z,24.20
2018-04-18T13:19:15.982Z,24.21
2018-04-18T13:21:42.193Z,24.21
2018-04-18T13:24:08.360Z,24.22
2018-04-18T13:26:35.028Z,24.24
2018-04-18T13:29:01.209Z,24.26
2018-04-18T13:31:27.439Z,24.27
2018-04-18T13:33:53.897Z,24.27
2018-04-18T13:36:20.309Z,24.26
2018-04-18T13:38:46.530Z,24.25
2018-04-18T13:41:12.713Z,24.26
2018-04-18T13:43:38.901Z,24.28
2018-04-18T13:46:05.549Z,24.30
2018-04-18T13:48:31.735Z,24.31
2018-04-18T13:50:57.944Z,24.30
2018-04-18T13:53:24.141Z,24.30
2018-04-18T13:55:50.449Z,24.32
2018-04-18T13:58:16.645Z,24.41
2018-04-18T14:00:42.865Z,24.51
2018-04-18T14:03:09.401Z,24.62
2018-04-18T14:05:35.638Z,24.71
2018-04-18T14:08:01.825Z,24.77
2018-04-18T14:10:28.438Z,24.83
2018-04-18T14:12:54.632Z,24.77
2018-04-18T14:15:21.228Z,25.01
2018-04-18T14:17:47.392Z,25.10
2018-04-18T14:20:13.696Z,25.21
2018-04-18T14:22:39.891Z,25.29
2018-04-18T14:25:06.073Z,25.44
2018-04-18T14:27:32.333Z,25.63
2018-04-18T14:29:58.562Z,26.05
2018-04-18T14:32:24.801Z,27.09
2018-04-18T14:34:51.000Z,28.63
2018-04-18T14:37:17.621Z,29.60
2018-04-18T14:39:43.866Z,30.20
2018-04-18T14:42:10.060Z,30.49
2018-04-18T14:44:36.483Z,30.65
2018-04-18T14:47:03.217Z,30.66
2018-04-18T14:49:29.405Z,30.81
2018-04-18T14:51:55.706Z,30.75
2018-04-18T14:54:22.425Z,30.86
2018-04-18T14:56:48.589Z,31.01
2018-04-18T14:59:14.760Z,31.21
2018-04-18T15:01:40.984Z,31.42
2018-04-18T15:04:07.269Z,31.56
2018-04-18T15:06:33.542Z,31.66
2018-04-18T15:08:59.715Z,31.61
2018-04-18T15:11:25.942Z,31.76
2018-04-18T15:13:52.394Z,31.93
2018-04-18T15:16:18.642Z,32.03
2018-04-18T15:18:44.884Z,32.21
2018-04-18T15:21:11.060Z,32.16
2018-04-18T15:23:37.278Z,31.87
2018-04-18T15:26:03.453Z,32.08
2018-04-18T15:28:29.748Z,32.18
2018-04-18T15:30:56.123Z,32.29
2018-04-18T15:33:22.334Z,32.37
2018-04-18T15:35:48.544Z,32.33
2018-04-18T15:38:14.738Z,32.32
2018-04-18T15:40:40.937Z,32.25
2018-04-18T15:43:07.121Z,32.20
2018-04-18T15:45:33.335Z,32.15
2018-04-18T15:47:59.575Z,31.74
2018-04-18T15:50:25.830Z,31.31
2018-04-18T15:52:52.353Z,30.88
2018-04-18T15:55:18.894Z,30.34
2018-04-18T15:57:45.123Z,29.82
2018-04-18T16:00:11.351Z,29.18
2018-04-18T16:02:37.630Z,28.68
2018-04-18T16:05:03.847Z,28.74
2018-04-18T16:07:30.065Z,28.85
2018-04-18T16:09:56.520Z,29.42
2018-04-18T16:12:22.798Z,29.26
2018-04-18T16:14:49.150Z,29.06
2018-04-18T16:17:15.390Z,29.34
2018-04-18T16:19:41.583Z,29.11
2018-04-18T16:22:07.840Z,28.33
2018-04-18T16:24:34.343Z,27.59
2018-04-18T16:27:00.646Z,27.40
2018-04-18T16:29:39.239Z,27.42
2018-04-18T16:32:05.502Z,27.06
2018-04-18T16:34:31.746Z,26.98
2018-04-18T16:36:57.994Z,27.02
2018-04-18T16:39:24.224Z,26.99
2018-04-18T16:41:50.754Z,26.97
2018-04-18T16:44:17.047Z,26.87
2018-04-18T16:46:43.262Z,26.74
2018-04-18T16:49:09.733Z,26.61
2018-04-18T16:51:36.040Z,26.50
2018-04-18T16:54:02.219Z,26.47
2018-04-18T16:56:28.422Z,26.47
2018-04-18T16:58:54.644Z,26.45
2018-04-18T17:01:20.797Z,26.46
2018-04-18T17:03:47.109Z,26.48
2018-04-18T17:06:13.276Z,26.50
2018-04-18T17:08:39.458Z,26.54
2018-04-18T17:11:06.397Z,26.58
2018-04-18T17:13:32.562Z,26.58
2018-04-18T17:15:58.842Z,26.58
2018-04-18T17:18:25.064Z,26.60
2018-04-18T17:20:51.614Z,26.61
2018-04-18T17:23:17.802Z,26.58
2018-04-18T17:25:44.445Z,26.55
2018-04-18T17:28:10.627Z,26.51
2018-04-18T17:30:36.816Z,26.45
2018-04-18T17:33:03.040Z,26.40
2018-04-18T17:35:29.353Z,26.34
2018-04-18T17:37:55.586Z,26.29
2018-04-18T17:40:21.793Z,26.23
2018-04-18T17:42:48.299Z,26.17
2018-04-18T17:45:14.508Z,26.11
2018-04-18T17:47:40.758Z,26.05
2018-04-18T17:50:06.958Z,25.97
2018-04-18T17:52:33.145Z,25.88
2018-04-18T17:54:59.297Z,25.76
2018-04-18T17:57:25.521Z,25.66
2018-04-18T17:59:51.786Z,25.58
2018-04-18T18:02:18.016Z,25.52
2018-04-18T18:04:44.217Z,25.46
2018-04-18T18:07:10.439Z,25.41
2018-04-18T18:09:36.758Z,25.35
2018-04-18T18:12:03.139Z,25.30
2018-04-18T18:14:29.379Z,25.24
2018-04-18T18:16:55.555Z,25.19
2018-04-18T18:19:21.866Z,25.14
2018-04-18T18:21:48.085Z,25.11
2018-04-18T18:24:14.347Z,25.06
2018-04-18T18:26:40.608Z,25.02
2018-04-18T18:29:06.805Z,24.98
2018-04-18T18:31:33.058Z,24.94
2018-04-18T18:33:59.258Z,24.93
2018-04-18T18:36:25.492Z,24.89
2018-04-18T18:38:51.805Z,24.87
2018-04-18T18:41:18.059Z,24.83
2018-04-18T18:43:44.601Z,24.82
2018-04-18T18:46:10.752Z,24.78
2018-04-18T18:48:37.282Z,24.76
2018-04-18T18:51:03.674Z,24.75
2018-04-18T18:53:29.850Z,24.75
2018-04-18T18:55:56.180Z,24.73
2018-04-18T18:58:22.328Z,24.72
2018-04-18T19:00:48.640Z,24.68
2018-04-18T19:03:14.975Z,24.66
2018-04-18T19:05:41.190Z,24.64
2018-04-18T19:08:07.397Z,24.62
2018-04-18T19:10:33.670Z,24.59
2018-04-18T19:13:00.099Z,24.57
2018-04-18T19:15:26.292Z,24.55
2018-04-18T19:17:52.521Z,24.53
2018-04-18T19:20:18.805Z,24.51
2018-04-18T19:22:44.973Z,24.49
2018-04-18T19:25:11.246Z,24.48
2018-04-18T19:27:37.422Z,24.45
2018-04-18T19:30:03.626Z,24.40
2018-04-18T19:32:30.314Z,24.39
2018-04-18T19:34:56.468Z,24.36
2018-04-18T19:37:22.678Z,24.32
2018-04-18T19:39:48.879Z,24.28
2018-04-18T19:42:15.114Z,24.27
2018-04-18T19:44:41.322Z,24.23
2018-04-18T19:47:07.480Z,24.21
2018-04-18T19:49:33.731Z,24.19
2018-04-18T19:52:00.071Z,24.17
2018-04-18T19:54:26.242Z,24.15
2018-04-18T19:56:52.612Z,24.12
2018-04-18T19:59:18.781Z,24.10
2018-04-18T20:01:45.438Z,24.09
2018-04-18T20:04:11.658Z,24.07
2018-04-18T20:06:37.911Z,24.04
2018-04-18T20:09:05.134Z,24.00
2018-04-18T20:11:31.357Z,24.00
2018-04-18T20:13:57.782Z,24.00
2018-04-18T20:16:24.066Z,23.99
2018-04-18T20:18:50.276Z,23.98
2018-04-18T20:21:16.470Z,23.97
2018-04-18T20:23:42.698Z,23.95
2018-04-18T20:26:08.873Z,23.95
2018-04-18T20:28:35.130Z,23.94
2018-04-18T20:31:01.387Z,23.93
2018-04-18T20:33:27.763Z,23.93
2018-04-18T20:35:53.913Z,23.91
2018-04-18T20:38:20.111Z,23.89
2018-04-18T20:40:46.334Z,23.87
2018-04-18T20:43:12.744Z,23.85
2018-04-18T20:45:38.918Z,23.84
2018-04-18T20:48:05.101Z,23.83
2018-04-18T20:50:31.300Z,23.81
2018-04-18T20:52:57.476Z,23.79
2018-04-18T20:55:23.797Z,23.78
2018-04-18T20:57:49.970Z,23.76
2018-04-18T21:00:16.170Z,23.76
2018-04-18T21:02:42.348Z,23.75
2018-04-18T21:05:08.861Z,23.74
2018-04-18T21:07:35.067Z,23.72
2018-04-18T21:10:01.223Z,23.71
2018-04-18T21:12:27.406Z,23.71
2018-04-18T21:14:53.919Z,23.69
2018-04-18T21:17:20.114Z,23.67
2018-04-18T21:19:46.294Z,23.67
2018-04-18T21:22:12.592Z,23.67
2018-04-18T21:24:38.750Z,23.66
2018-04-18T21:27:04.900Z,23.65
2018-04-18T21:29:31.282Z,23.62
2018-04-18T21:31:57.449Z,23.60
2018-04-18T21:34:23.714Z,23.58
2018-04-18T21:36:49.940Z,23.56
2018-04-18T21:39:16.154Z,23.55
2018-04-18T21:41:42.326Z,23.53
2018-04-18T21:44:08.542Z,23.53
2018-04-18T21:46:34.732Z,23.52
2018-04-18T21:49:00.981Z,23.50
2018-04-18T21:51:27.233Z,23.49
2018-04-18T21:53:53.470Z,23.48
2018-04-18T21:56:19.690Z,23.45
2018-04-18T21:58:45.857Z,23.45
2018-04-18T22:01:12.042Z,23.44
2018-04-18T22:03:38.203Z,23.43
2018-04-18T22:06:04.518Z,23.42
2018-04-18T22:08:30.694Z,23.41
2018-04-18T22:10:56.946Z,23.40
2018-04-18T22:13:23.193Z,23.39
2018-04-18T22:15:49.362Z,23.37
2018-04-18T22:18:16.124Z,23.37
2018-04-18T22:20:42.286Z,23.37
2018-04-18T22:23:08.713Z,23.37
2018-04-18T22:25:34.963Z,23.38
2018-04-18T22:28:01.205Z,23.37
2018-04-18T22:30:27.342Z,23.36
2018-04-18T22:32:53.576Z,23.36
2018-04-18T22:35:19.893Z,23.37
2018-04-18T22:37:53.027Z,23.37
2018-04-18T22:40:19.250Z,23.36
2018-04-18T22:42:45.396Z,23.36
2018-04-18T22:45:11.571Z,23.33
2018-04-18T22:47:37.871Z,23.35
2018-04-18T22:50:04.093Z,23.37
2018-04-18T22:52:30.273Z,23.37
2018-04-18T22:54:56.429Z,23.33
2018-04-18T22:57:22.828Z,23.31
2018-04-18T22:59:49.005Z,23.32
2018-04-18T23:02:15.258Z,23.32
2018-04-18T23:04:41.486Z,23.32
2018-04-18T23:07:07.847Z,23.32
2018-04-18T23:09:33.993Z,23.30
2018-04-18T23:12:00.150Z,23.30
2018-04-18T23:14:26.427Z,23.29
2018-04-18T23:16:53.101Z,23.28
2018-04-18T23:19:19.264Z,23.27
2018-04-18T23:21:45.460Z,23.26
2018-04-18T23:24:11.716Z,23.25
2018-04-18T23:26:37.902Z,23.23
2018-04-18T23:29:04.101Z,23.21
2018-04-18T23:31:30.292Z,23.19
2018-04-18T23:33:56.522Z,23.16
2018-04-18T23:36:22.697Z,23.14
2018-04-18T23:38:49.277Z,23.12
2018-04-18T23:41:15.526Z,23.10
2018-04-18T23:43:41.898Z,23.09
2018-04-18T23:46:08.060Z,23.08
2018-04-18T23:48:34.225Z,23.08
2018-04-18T23:51:00.428Z,23.06
2018-04-18T23:53:26.954Z,23.05
2018-04-18T23:55:53.194Z,23.04
2018-04-18T23:58:19.343Z,23.04
